Time;durP1;ratioP1;P1;durP2;ratioP2;P2;SDS_P1;SDS_P2;PMS_P1;PMS_P2;Temp;Humidity;BMP_temperature;BMP_pressure;BME280_temperature;BME280_humidity;BME280_pressure;Samples;Min_cycle;Max_cycle;Signal;HPM_P1;HPM_P2
2022/02/12 00:02:11;;;;;;;3.65;3.13;;;;;;;;;;5033236;28;24883;-58
2022/02/12 00:04:36;;;;;;;3.37;3.07;;;;;;;;;;5034768;28;24570;-58
2022/02/12 00:07:01;;;;;;;4.70;2.80;;;;;;;;;;5038365;28;24527;-59
2022/02/12 00:09:26;;;;;;;4.80;3.10;;;;;;;;;;5038924;28;24415;-58
2022/02/12 00:11:52;;;;;;;5.10;3.20;;;;;;;;;;5037050;28;24416;-58
2022/02/12 00:14:17;;;;;;;5.87;3.03;;;;;;;;;;5040715;28;25242;-59
2022/02/12 00:16:42;;;;;;;3.95;2.72;;;;;;;;;;5032313;28;24427;-60
2022/02/12 00:19:07;;;;;;;5.77;3.30;;;;;;;;;;5038025;28;24431;-58
2022/02/12 00:21:32;;;;;;;6.07;3.10;;;;;;;;;;5040067;28;24997;-59
2022/02/12 00:23:57;;;;;;;3.20;2.60;;;;;;;;;;5042512;28;24435;-59
2022/02/12 00:26:23;;;;;;;3.78;2.55;;;;;;;;;;5035427;28;24495;-58
2022/02/12 00:28:48;;;;;;;4.23;2.50;;;;;;;;;;5048378;28;24984;-58
2022/02/12 00:31:13;;;;;;;5.47;2.83;;;;;;;;;;5029281;28;24505;-58
2022/02/12 00:33:38;;;;;;;4.00;2.53;;;;;;;;;;5037575;28;24513;-58
2022/02/12 00:36:03;;;;;;;3.80;2.60;;;;;;;;;;5032913;28;24456;-58
2022/02/12 00:38:29;;;;;;;4.40;2.20;;;;;;;;;;5040078;28;24798;-58
2022/02/12 00:40:54;;;;;;;3.07;2.00;;;;;;;;;;5037070;28;24416;-57
2022/02/12 00:43:19;;;;;;;3.78;2.00;;;;;;;;;;5033631;28;24451;-56
2022/02/12 00:45:46;;;;;;;5.73;2.30;;;;;;;;;;5032767;28;24431;-57
2022/02/12 00:48:11;;;;;;;3.47;2.00;;;;;;;;;;5033847;28;24415;-58
2022/02/12 00:50:37;;;;;;;2.90;1.60;;;;;;;;;;5034434;28;24968;-58
2022/02/12 00:53:02;;;;;;;3.17;1.70;;;;;;;;;;5045415;28;24503;-58
2022/02/12 00:55:27;;;;;;;3.10;1.83;;;;;;;;;;5044079;28;24455;-58
2022/02/12 00:57:52;;;;;;;3.00;1.70;;;;;;;;;;5032896;28;24941;-58
2022/02/12 01:00:17;;;;;;;3.97;2.23;;;;;;;;;;5041985;28;24519;-58
2022/02/12 01:02:43;;;;;;;4.40;1.70;;;;;;;;;;5035288;28;25318;-58
2022/02/12 01:05:08;;;;;;;4.10;2.10;;;;;;;;;;5039850;28;24950;-57
2022/02/12 01:07:33;;;;;;;2.17;1.50;;;;;;;;;;5032099;28;24497;-58
2022/02/12 01:09:58;;;;;;;3.30;2.00;;;;;;;;;;5030793;28;24423;-58
2022/02/12 01:12:24;;;;;;;3.90;1.97;;;;;;;;;;5032295;28;24848;-58
2022/02/12 01:14:49;;;;;;;3.67;2.03;;;;;;;;;;5042865;28;24415;-59
2022/02/12 01:17:14;;;;;;;2.38;1.80;;;;;;;;;;5036923;28;24422;-58
2022/02/12 01:19:39;;;;;;;5.07;2.07;;;;;;;;;;5036284;28;24474;-58
2022/02/12 01:22:04;;;;;;;2.20;1.60;;;;;;;;;;5037853;28;24782;-59
2022/02/12 01:24:29;;;;;;;3.00;2.00;;;;;;;;;;5037342;28;24412;-59
2022/02/12 01:26:56;;;;;;;2.80;1.90;;;;;;;;;;5042467;28;24495;-60
2022/02/12 01:29:21;;;;;;;2.60;2.00;;;;;;;;;;5029470;28;24524;-59
2022/02/12 01:31:46;;;;;;;3.90;1.80;;;;;;;;;;5034585;28;24499;-59
2022/02/12 01:34:11;;;;;;;3.00;1.60;;;;;;;;;;5032172;28;24458;-59
2022/02/12 01:36:36;;;;;;;2.58;1.88;;;;;;;;;;5036094;28;24441;-59
2022/02/12 01:39:02;;;;;;;3.00;1.60;;;;;;;;;;5031980;28;24814;-58
2022/02/12 01:41:27;;;;;;;4.50;1.93;;;;;;;;;;5036087;28;24968;-58
2022/02/12 01:43:52;;;;;;;3.90;2.00;;;;;;;;;;5036349;28;24945;-58
2022/02/12 01:46:17;;;;;;;3.47;1.97;;;;;;;;;;5041381;28;24472;-58
2022/02/12 01:48:44;;;;;;;3.60;2.07;;;;;;;;;;5028779;28;24427;-57
2022/02/12 01:51:09;;;;;;;3.78;1.70;;;;;;;;;;5026326;28;24474;-58
2022/02/12 01:53:34;;;;;;;2.60;2.10;;;;;;;;;;5042898;28;24505;-58
2022/02/12 01:55:59;;;;;;;3.23;2.00;;;;;;;;;;5039297;28;24416;-59
2022/02/12 01:58:25;;;;;;;2.23;1.97;;;;;;;;;;5039582;28;24423;-58
2022/02/12 02:00:51;;;;;;;2.60;2.00;;;;;;;;;;5027885;28;24404;-58
2022/02/12 02:03:16;;;;;;;3.10;2.10;;;;;;;;;;5036882;28;24416;-58
2022/02/12 02:05:41;;;;;;;3.13;2.13;;;;;;;;;;5042635;28;24452;-58
2022/02/12 02:08:06;;;;;;;2.80;2.10;;;;;;;;;;5040958;28;24829;-57
2022/02/12 02:10:32;;;;;;;3.08;2.10;;;;;;;;;;5031290;28;24455;-57
2022/02/12 02:12:57;;;;;;;3.97;2.30;;;;;;;;;;5041833;28;24785;-58
2022/02/12 02:15:22;;;;;;;3.63;2.20;;;;;;;;;;5035620;28;24870;-58
2022/02/12 02:17:47;;;;;;;3.22;2.20;;;;;;;;;;5027716;28;24477;-58
2022/02/12 02:20:13;;;;;;;3.70;2.00;;;;;;;;;;5044610;28;24436;-59
2022/02/12 02:22:44;;;;;;;4.43;2.50;;;;;;;;;;5036261;28;24985;-59
2022/02/12 02:25:09;;;;;;;2.55;2.35;;;;;;;;;;5036964;28;24966;-58
2022/02/12 02:27:34;;;;;;;4.03;2.53;;;;;;;;;;5030223;28;24520;-58
2022/02/12 02:29:59;;;;;;;2.60;2.30;;;;;;;;;;5030688;28;24822;-58
2022/02/12 02:32:24;;;;;;;3.40;2.40;;;;;;;;;;5029024;28;24416;-60
2022/02/12 02:34:51;;;;;;;3.63;2.50;;;;;;;;;;5034919;28;25023;-57
2022/02/12 02:37:17;;;;;;;4.78;2.53;;;;;;;;;;5031765;28;24419;-57
2022/02/12 02:39:42;;;;;;;2.88;2.40;;;;;;;;;;5028350;28;25107;-58
2022/02/12 02:42:07;;;;;;;3.60;2.20;;;;;;;;;;5039906;28;24416;-58
2022/02/12 02:44:33;;;;;;;5.43;2.40;;;;;;;;;;5031867;28;24443;-58
2022/02/12 02:46:58;;;;;;;2.93;2.40;;;;;;;;;;5028029;28;24458;-58
2022/02/12 02:49:23;;;;;;;4.60;2.20;;;;;;;;;;5037657;28;25036;-58
2022/02/12 02:57:16;;;;;;;3.90;2.83;;;;;;;;;;5025256;28;24977;-58
2022/02/12 02:59:41;;;;;;;3.37;2.53;;;;;;;;;;5029756;28;24432;-58
2022/02/12 03:02:06;;;;;;;4.10;2.58;;;;;;;;;;5040806;28;24416;-59
2022/02/12 03:04:31;;;;;;;3.07;2.50;;;;;;;;;;5039852;28;24435;-57
2022/02/12 03:06:57;;;;;;;3.13;2.67;;;;;;;;;;5034991;28;25081;-58
2022/02/12 03:09:22;;;;;;;3.93;2.70;;;;;;;;;;5034058;28;24514;-59
2022/02/12 03:11:48;;;;;;;3.30;2.97;;;;;;;;;;5026788;28;24423;-58
2022/02/12 03:14:13;;;;;;;4.97;3.10;;;;;;;;;;5039024;28;24495;-58
2022/02/12 03:16:38;;;;;;;3.33;3.00;;;;;;;;;;5029803;28;24519;-57
2022/02/12 03:19:03;;;;;;;4.23;3.10;;;;;;;;;;5025779;28;24459;-57
2022/02/12 03:21:28;;;;;;;4.82;3.20;;;;;;;;;;5032167;28;24407;-58
2022/02/12 03:23:54;;;;;;;4.32;2.90;;;;;;;;;;5033409;28;24454;-57
2022/02/12 03:26:19;;;;;;;2.97;2.70;;;;;;;;;;5032927;28;25011;-57
2022/02/12 03:28:44;;;;;;;3.42;3.13;;;;;;;;;;5044161;28;24853;-58
2022/02/12 03:31:09;;;;;;;4.00;3.00;;;;;;;;;;5027591;28;24984;-58
2022/02/12 03:33:35;;;;;;;3.00;2.63;;;;;;;;;;5043861;28;24481;-58
2022/02/12 03:36:00;;;;;;;3.97;2.70;;;;;;;;;;5041791;28;24479;-58
2022/02/12 03:38:31;;;;;;;3.60;2.75;;;;;;;;;;5032168;28;24459;-58
2022/02/12 03:40:58;;;;;;;4.75;2.70;;;;;;;;;;5035310;28;24473;-58
2022/02/12 03:43:23;;;;;;;3.70;2.92;;;;;;;;;;5037553;28;24431;-58
2022/02/12 03:45:48;;;;;;;4.17;2.60;;;;;;;;;;5038820;28;24415;-58
2022/02/12 03:48:14;;;;;;;3.73;2.90;;;;;;;;;;5036370;28;24457;-57
2022/02/12 03:50:39;;;;;;;3.10;2.80;;;;;;;;;;5030161;28;24450;-58
2022/02/12 03:53:05;;;;;;;4.03;3.27;;;;;;;;;;5040229;28;24522;-57
2022/02/12 03:55:31;;;;;;;4.07;2.97;;;;;;;;;;5038851;28;25008;-57
2022/02/12 03:57:56;;;;;;;3.88;2.65;;;;;;;;;;5040648;28;24412;-58
2022/02/12 04:00:23;;;;;;;2.95;2.75;;;;;;;;;;5038750;28;24451;-58
2022/02/12 04:02:48;;;;;;;3.15;2.95;;;;;;;;;;5038164;28;24427;-58
2022/02/12 04:05:14;;;;;;;3.40;3.03;;;;;;;;;;5035881;28;24785;-58
2022/02/12 04:07:42;;;;;;;3.53;2.70;;;;;;;;;;5032299;28;25246;-58
2022/02/12 04:10:08;;;;;;;3.13;2.90;;;;;;;;;;5037997;28;24428;-58
2022/02/12 04:12:33;;;;;;;3.90;3.00;;;;;;;;;;5038513;28;24834;-59
2022/02/12 04:14:58;;;;;;;3.63;2.80;;;;;;;;;;5032094;28;24782;-58
2022/02/12 04:17:24;;;;;;;3.83;2.83;;;;;;;;;;5034429;28;24489;-58
2022/02/12 04:19:50;;;;;;;4.45;3.10;;;;;;;;;;5031600;28;24424;-58
2022/02/12 04:22:15;;;;;;;3.37;2.90;;;;;;;;;;5043801;28;24984;-58
2022/02/12 04:24:40;;;;;;;4.47;3.50;;;;;;;;;;5029394;28;24416;-57
2022/02/12 04:27:05;;;;;;;3.60;3.30;;;;;;;;;;5041259;28;24509;-58
2022/02/12 04:29:30;;;;;;;5.15;2.97;;;;;;;;;;5045675;28;24488;-58
2022/02/12 04:31:55;;;;;;;4.47;3.40;;;;;;;;;;5055110;28;24422;-58
2022/02/12 04:34:21;;;;;;;3.40;3.05;;;;;;;;;;5039629;28;24411;-58
2022/02/12 04:36:47;;;;;;;4.20;3.10;;;;;;;;;;5033674;28;24422;-58
2022/02/12 04:39:12;;;;;;;5.35;3.60;;;;;;;;;;5032701;28;24541;-58
2022/02/12 04:41:39;;;;;;;3.27;3.00;;;;;;;;;;5027160;28;24542;-60
2022/02/12 04:44:05;;;;;;;3.60;3.30;;;;;;;;;;5027900;28;24451;-60
2022/02/12 04:46:30;;;;;;;3.20;2.90;;;;;;;;;;5039795;28;24415;-59
2022/02/12 04:48:55;;;;;;;3.27;2.90;;;;;;;;;;5043163;28;24439;-59
2022/02/12 04:51:20;;;;;;;3.58;2.80;;;;;;;;;;5033837;28;24755;-59
2022/02/12 04:53:46;;;;;;;3.30;3.00;;;;;;;;;;5045113;28;24795;-59
2022/02/12 04:56:11;;;;;;;4.40;3.40;;;;;;;;;;5039421;28;25149;-59
2022/02/12 04:58:36;;;;;;;5.50;3.50;;;;;;;;;;5037003;28;24430;-59
2022/02/12 05:01:01;;;;;;;4.50;3.10;;;;;;;;;;5033126;28;25035;-59
2022/02/12 05:03:26;;;;;;;3.95;3.55;;;;;;;;;;5031686;28;24451;-59
2022/02/12 05:05:51;;;;;;;4.40;3.83;;;;;;;;;;5044557;28;24416;-58
2022/02/12 05:08:17;;;;;;;3.60;3.30;;;;;;;;;;5047572;28;24411;-58
2022/02/12 05:10:42;;;;;;;3.97;3.60;;;;;;;;;;5035549;28;24985;-58
2022/02/12 05:13:07;;;;;;;4.70;3.87;;;;;;;;;;5037844;28;24580;-58
2022/02/12 05:15:32;;;;;;;4.00;3.50;;;;;;;;;;5033106;28;24407;-59
2022/02/12 05:17:57;;;;;;;4.60;4.20;;;;;;;;;;5028708;28;25165;-59
2022/02/12 05:20:23;;;;;;;4.18;3.50;;;;;;;;;;5028872;28;24584;-58
2022/02/12 05:22:48;;;;;;;5.47;4.00;;;;;;;;;;5041021;28;24400;-59
2022/02/12 05:25:13;;;;;;;5.80;4.40;;;;;;;;;;5033058;28;24470;-58
2022/02/12 05:27:38;;;;;;;5.50;4.30;;;;;;;;;;5034490;28;24419;-59
2022/02/12 05:30:03;;;;;;;6.05;3.92;;;;;;;;;;5045167;28;25018;-59
2022/02/12 05:32:29;;;;;;;4.60;4.20;;;;;;;;;;5035984;28;24418;-59
2022/02/12 05:34:54;;;;;;;6.00;4.70;;;;;;;;;;5029837;28;24508;-59
2022/02/12 05:37:19;;;;;;;5.00;3.90;;;;;;;;;;5035209;28;24569;-59
2022/02/12 05:39:44;;;;;;;5.03;4.18;;;;;;;;;;5046659;28;25203;-60
2022/02/12 05:42:09;;;;;;;5.65;4.38;;;;;;;;;;5035807;28;24411;-59
2022/02/12 05:44:34;;;;;;;7.80;5.07;;;;;;;;;;5036190;28;24502;-59
2022/02/12 05:47:00;;;;;;;5.27;4.60;;;;;;;;;;5034438;28;24771;-59
2022/02/12 05:49:25;;;;;;;6.70;5.23;;;;;;;;;;5028581;28;24456;-58
2022/02/12 05:51:50;;;;;;;7.10;5.45;;;;;;;;;;5040020;28;24450;-60
2022/02/12 05:54:15;;;;;;;4.77;4.20;;;;;;;;;;5034470;28;24428;-57
2022/02/12 05:56:40;;;;;;;5.13;4.10;;;;;;;;;;5038020;28;24783;-58
2022/02/12 05:59:08;;;;;;;5.25;3.90;;;;;;;;;;5033061;28;24517;-59
2022/02/12 06:01:34;;;;;;;6.07;4.30;;;;;;;;;;5029623;28;24411;-59
2022/02/12 06:03:59;;;;;;;4.50;4.00;;;;;;;;;;5032708;28;24427;-58
2022/02/12 06:06:24;;;;;;;4.82;3.80;;;;;;;;;;5030747;28;24404;-58
2022/02/12 06:08:49;;;;;;;5.23;4.70;;;;;;;;;;5030639;28;24446;-58
2022/02/12 06:11:14;;;;;;;7.78;4.20;;;;;;;;;;5032678;28;24442;-58
2022/02/12 06:13:40;;;;;;;4.67;4.00;;;;;;;;;;5043193;28;24454;-58
2022/02/12 06:16:05;;;;;;;5.57;4.30;;;;;;;;;;5033238;28;24996;-58
2022/02/12 06:18:30;;;;;;;4.80;4.03;;;;;;;;;;5032069;28;24969;-58
2022/02/12 06:20:56;;;;;;;4.90;4.13;;;;;;;;;;5027585;28;24540;-58
2022/02/12 06:23:21;;;;;;;5.75;4.95;;;;;;;;;;5030532;28;24461;-57
2022/02/12 06:25:47;;;;;;;6.87;4.90;;;;;;;;;;5027667;28;24490;-58
2022/02/12 06:28:13;;;;;;;7.35;5.50;;;;;;;;;;5035427;28;24429;-58
2022/02/12 06:30:38;;;;;;;4.38;3.88;;;;;;;;;;5039341;28;24502;-58
2022/02/12 06:33:03;;;;;;;6.50;4.30;;;;;;;;;;5032671;28;24423;-59
2022/02/12 06:35:28;;;;;;;5.50;4.30;;;;;;;;;;5028911;28;24418;-58
2022/02/12 06:37:55;;;;;;;4.60;4.07;;;;;;;;;;5026811;28;24419;-58
2022/02/12 06:40:20;;;;;;;5.65;4.28;;;;;;;;;;5040696;28;24439;-58
2022/02/12 06:42:46;;;;;;;4.70;4.20;;;;;;;;;;5039885;28;24472;-58
2022/02/12 06:45:11;;;;;;;6.00;4.40;;;;;;;;;;5033717;28;24977;-59
2022/02/12 06:47:37;;;;;;;7.20;4.60;;;;;;;;;;5026794;28;24411;-58
2022/02/12 06:50:03;;;;;;;4.70;4.30;;;;;;;;;;5043306;28;24442;-58
2022/02/12 06:52:28;;;;;;;5.60;5.10;;;;;;;;;;5035508;28;24419;-58
2022/02/12 06:54:54;;;;;;;5.10;4.60;;;;;;;;;;5035303;28;24438;-58
2022/02/12 06:57:19;;;;;;;6.03;5.22;;;;;;;;;;5031735;28;24422;-59
2022/02/12 06:59:45;;;;;;;8.57;5.20;;;;;;;;;;5035063;28;24496;-58
2022/02/12 07:02:10;;;;;;;5.37;4.47;;;;;;;;;;5028264;28;24400;-60
2022/02/12 07:04:35;;;;;;;5.60;5.07;;;;;;;;;;5032809;28;24426;-59
2022/02/12 07:07:00;;;;;;;6.45;4.65;;;;;;;;;;5030268;28;24443;-59
2022/02/12 07:09:25;;;;;;;6.63;5.30;;;;;;;;;;5036272;28;24458;-59
2022/02/12 07:11:50;;;;;;;5.97;4.23;;;;;;;;;;5029906;28;24420;-59
2022/02/12 07:14:15;;;;;;;5.80;4.23;;;;;;;;;;5032227;28;24457;-59
2022/02/12 07:16:41;;;;;;;5.82;4.70;;;;;;;;;;5032597;28;24873;-59
2022/02/12 07:19:06;;;;;;;5.70;4.50;;;;;;;;;;5039870;28;24513;-59
2022/02/12 07:21:33;;;;;;;5.90;4.28;;;;;;;;;;5033548;28;25037;-59
2022/02/12 07:23:58;;;;;;;4.93;4.30;;;;;;;;;;5045326;28;24986;-59
2022/02/12 07:26:23;;;;;;;7.67;4.40;;;;;;;;;;5037861;28;24517;-58
2022/02/12 07:28:48;;;;;;;4.30;3.80;;;;;;;;;;5036604;28;24542;-59
2022/02/12 07:31:16;;;;;;;7.70;5.20;;;;;;;;;;5046843;28;24557;-58
2022/02/12 07:33:41;;;;;;;6.70;4.78;;;;;;;;;;5031346;28;24431;-58
2022/02/12 07:36:07;;;;;;;7.68;5.97;;;;;;;;;;5038240;28;24420;-58
2022/02/12 07:38:32;;;;;;;7.93;5.30;;;;;;;;;;5028880;28;24464;-58
2022/02/12 07:40:58;;;;;;;6.30;4.83;;;;;;;;;;5034018;28;24498;-58
2022/02/12 07:43:23;;;;;;;4.60;4.20;;;;;;;;;;5038546;28;24419;-58
2022/02/12 07:45:48;;;;;;;4.93;4.33;;;;;;;;;;5040697;28;26666;-59
2022/02/12 07:48:13;;;;;;;6.13;4.63;;;;;;;;;;5040910;28;24466;-59
2022/02/12 07:50:38;;;;;;;8.33;5.50;;;;;;;;;;5042633;28;24408;-59
2022/02/12 07:53:04;;;;;;;5.95;5.30;;;;;;;;;;5042851;28;24696;-59
2022/02/12 07:55:30;;;;;;;5.07;4.60;;;;;;;;;;5036963;28;24442;-59
2022/02/12 07:57:56;;;;;;;5.47;4.72;;;;;;;;;;5039690;28;24977;-59
2022/02/12 08:00:21;;;;;;;6.65;4.80;;;;;;;;;;5045063;28;24456;-59
2022/02/12 08:02:47;;;;;;;9.05;6.47;;;;;;;;;;5029882;28;24411;-60
2022/02/12 08:05:12;;;;;;;7.50;5.20;;;;;;;;;;5035281;28;24532;-60
2022/02/12 08:07:39;;;;;;;6.60;5.50;;;;;;;;;;5030112;28;24530;-61
2022/02/12 08:11:22;;;;;;;6.60;5.82;;;;;;;;;;5034057;28;24426;-59
2022/02/12 08:12:50;;;;;;;7.40;5.60;;;;;;;;;;5029930;28;25013;-60
2022/02/12 08:15:15;;;;;;;7.03;5.90;;;;;;;;;;5044356;28;24414;-58
2022/02/12 08:17:41;;;;;;;7.60;5.63;;;;;;;;;;5040583;28;24432;-58
2022/02/12 08:20:06;;;;;;;6.50;5.80;;;;;;;;;;5029198;28;24430;-58
2022/02/12 08:22:31;;;;;;;6.20;5.40;;;;;;;;;;5039301;28;24459;-59
2022/02/12 08:24:56;;;;;;;5.75;4.72;;;;;;;;;;5040696;28;24546;-60
2022/02/12 08:27:27;;;;;;;8.82;5.43;;;;;;;;;;5043691;28;24506;-60
2022/02/12 08:29:52;;;;;;;5.47;4.90;;;;;;;;;;5045529;28;24443;-61
2022/02/12 08:32:17;;;;;;;6.37;5.13;;;;;;;;;;5029657;28;24447;-56
2022/02/12 08:34:42;;;;;;;8.10;6.07;;;;;;;;;;5028012;28;24975;-56
2022/02/12 08:37:07;;;;;;;6.53;5.80;;;;;;;;;;5029471;28;24989;-56
2022/02/12 08:39:32;;;;;;;7.20;6.13;;;;;;;;;;5029695;28;24819;-59
2022/02/12 08:41:58;;;;;;;8.33;6.43;;;;;;;;;;5047282;28;24469;-59
2022/02/12 08:44:23;;;;;;;10.23;7.50;;;;;;;;;;5030315;28;24408;-60
2022/02/12 08:46:48;;;;;;;8.70;6.50;;;;;;;;;;5046488;28;24942;-60
2022/02/12 08:49:16;;;;;;;9.27;7.10;;;;;;;;;;5037388;28;24477;-61
2022/02/12 08:51:41;;;;;;;8.15;6.10;;;;;;;;;;5040970;28;24877;-60
2022/02/12 08:54:07;;;;;;;10.50;7.77;;;;;;;;;;5037080;28;24448;-60
2022/02/12 08:56:34;;;;;;;6.37;5.60;;;;;;;;;;5035128;28;24420;-60
2022/02/12 08:58:59;;;;;;;8.15;6.47;;;;;;;;;;5027447;28;24795;-60
2022/02/12 09:01:25;;;;;;;7.10;6.40;;;;;;;;;;5028218;28;24418;-60
2022/02/12 09:03:50;;;;;;;7.35;6.55;;;;;;;;;;5038021;28;24896;-60
2022/02/12 09:06:15;;;;;;;7.43;6.37;;;;;;;;;;5041401;28;24423;-60
2022/02/12 09:08:40;;;;;;;7.35;6.55;;;;;;;;;;5038178;28;24404;-59
2022/02/12 09:11:05;;;;;;;7.20;6.50;;;;;;;;;;5035339;28;24431;-60
2022/02/12 09:13:31;;;;;;;7.33;6.30;;;;;;;;;;5029920;28;24417;-60
2022/02/12 09:15:56;;;;;;;7.85;6.47;;;;;;;;;;5025781;28;24412;-60
2022/02/12 09:18:22;;;;;;;9.15;7.00;;;;;;;;;;5027467;28;24507;-60
2022/02/12 09:20:47;;;;;;;8.75;6.95;;;;;;;;;;5026858;28;24439;-61
2022/02/12 09:23:12;;;;;;;7.15;6.45;;;;;;;;;;5027980;28;25028;-61
2022/02/12 09:25:38;;;;;;;8.17;7.07;;;;;;;;;;5027960;28;24506;-61
2022/02/12 09:28:03;;;;;;;8.00;7.20;;;;;;;;;;5028165;28;24404;-61
2022/02/12 09:30:28;;;;;;;7.40;6.60;;;;;;;;;;5027449;28;24408;-59
2022/02/12 09:32:53;;;;;;;8.20;7.40;;;;;;;;;;5027232;28;24539;-61
2022/02/12 09:35:20;;;;;;;8.27;7.40;;;;;;;;;;5028922;28;24415;-60
2022/02/12 09:37:45;;;;;;;12.10;8.43;;;;;;;;;;5026461;28;24511;-61
2022/02/12 09:40:11;;;;;;;9.67;7.50;;;;;;;;;;5039346;28;24530;-60
2022/02/12 09:42:36;;;;;;;9.00;7.20;;;;;;;;;;5026961;28;24500;-61
2022/02/12 09:45:03;;;;;;;9.13;8.03;;;;;;;;;;5028484;28;24462;-61
2022/02/12 09:47:28;;;;;;;11.05;8.38;;;;;;;;;;5034906;28;24416;-61
2022/02/12 09:49:57;;;;;;;9.33;8.23;;;;;;;;;;5027224;28;24494;-60
2022/02/12 09:52:23;;;;;;;7.72;6.90;;;;;;;;;;5027271;28;24424;-61
2022/02/12 09:54:48;;;;;;;7.57;6.77;;;;;;;;;;5027193;28;24972;-61
2022/02/12 09:57:13;;;;;;;8.43;7.30;;;;;;;;;;5026871;28;24505;-61
2022/02/12 09:59:38;;;;;;;7.13;6.00;;;;;;;;;;5026752;28;24423;-61
2022/02/12 10:02:03;;;;;;;7.50;5.80;;;;;;;;;;5027081;28;24855;-60
2022/02/12 10:04:31;;;;;;;6.83;6.13;;;;;;;;;;5037227;28;24415;-61
2022/02/12 10:06:56;;;;;;;6.68;6.00;;;;;;;;;;5030679;28;24972;-61
2022/02/12 10:09:21;;;;;;;6.80;6.10;;;;;;;;;;5027620;28;24431;-61
2022/02/12 10:11:48;;;;;;;11.32;6.93;;;;;;;;;;5027931;28;24786;-61
2022/02/12 10:14:14;;;;;;;7.13;6.10;;;;;;;;;;5026309;28;24902;-61
2022/02/12 10:16:58;;;;;;;6.22;5.63;;;;;;;;;;5026855;28;24443;-61
2022/02/12 10:19:27;;;;;;;6.65;5.95;;;;;;;;;;5027963;28;24501;-61
2022/02/12 10:22:02;;;;;;;6.80;5.83;;;;;;;;;;5042883;28;24431;-61
2022/02/12 10:24:48;;;;;;;8.55;6.53;;;;;;;;;;5036514;28;24950;-61
2022/02/12 10:27:13;;;;;;;6.50;5.70;;;;;;;;;;5030248;28;24428;-61
2022/02/12 10:29:39;;;;;;;6.20;5.38;;;;;;;;;;5038177;28;24419;-61
2022/02/12 10:32:04;;;;;;;7.07;5.50;;;;;;;;;;5026950;28;24424;-61
2022/02/12 10:34:40;;;;;;;5.40;4.90;;;;;;;;;;5036621;28;24864;-60
2022/02/12 10:37:05;;;;;;;5.65;4.95;;;;;;;;;;5041436;28;24778;-61
2022/02/12 10:39:30;;;;;;;6.10;5.50;;;;;;;;;;5025716;28;24459;-60
2022/02/12 10:42:05;;;;;;;5.57;5.07;;;;;;;;;;5026883;28;24495;-61
2022/02/12 10:44:31;;;;;;;6.00;5.40;;;;;;;;;;5030431;28;24813;-60
2022/02/12 10:46:56;;;;;;;6.90;5.53;;;;;;;;;;5026471;28;24943;-60
2022/02/12 10:49:25;;;;;;;6.43;5.40;;;;;;;;;;5026239;28;24412;-60
2022/02/12 10:51:51;;;;;;;6.72;4.70;;;;;;;;;;5028472;28;24489;-61
2022/02/12 10:54:26;;;;;;;5.47;4.80;;;;;;;;;;5027733;28;24416;-60
2022/02/12 10:56:52;;;;;;;5.68;4.60;;;;;;;;;;5029606;28;24415;-62
2022/02/12 10:59:21;;;;;;;6.30;4.38;;;;;;;;;;5043779;28;24514;-61
2022/02/12 11:01:47;;;;;;;6.87;4.70;;;;;;;;;;5030658;28;24980;-61
2022/02/12 11:04:16;;;;;;;5.27;4.23;;;;;;;;;;5031559;28;24408;-62
2022/02/12 11:06:43;;;;;;;6.20;4.70;;;;;;;;;;5030439;28;25029;-61
2022/02/12 11:09:08;;;;;;;5.25;4.63;;;;;;;;;;5030311;28;24419;-61
2022/02/12 11:11:33;;;;;;;5.10;4.50;;;;;;;;;;5030659;28;24965;-61
2022/02/12 11:13:59;;;;;;;6.60;4.30;;;;;;;;;;5030583;28;24816;-61
2022/02/12 11:16:27;;;;;;;7.07;5.00;;;;;;;;;;5031996;28;24472;-60
2022/02/12 11:18:53;;;;;;;5.43;4.70;;;;;;;;;;5029901;28;25132;-60
2022/02/12 11:21:18;;;;;;;7.80;5.47;;;;;;;;;;5036207;28;24447;-60
2022/02/12 11:23:59;;;;;;;6.43;5.73;;;;;;;;;;5030192;28;24828;-60
2022/02/12 11:26:24;;;;;;;5.55;4.97;;;;;;;;;;5035211;28;24511;-61
2022/02/12 11:28:50;;;;;;;6.07;5.47;;;;;;;;;;5045281;28;24502;-60
2022/02/12 11:31:22;;;;;;;6.33;5.67;;;;;;;;;;5036956;28;24927;-61
2022/02/12 11:34:06;;;;;;;5.90;5.20;;;;;;;;;;5027766;28;24419;-60
2022/02/12 11:36:31;;;;;;;6.63;4.80;;;;;;;;;;5029307;28;24415;-61
2022/02/12 11:39:13;;;;;;;6.00;5.40;;;;;;;;;;5036164;28;24450;-60
2022/02/12 11:41:39;;;;;;;8.67;5.10;;;;;;;;;;5029566;28;24420;-60
2022/02/12 11:44:04;;;;;;;6.18;5.07;;;;;;;;;;5042398;28;24485;-60
2022/02/12 11:46:48;;;;;;;6.95;5.90;;;;;;;;;;5034211;28;24450;-60
2022/02/12 11:49:33;;;;;;;7.10;5.72;;;;;;;;;;5042881;28;24423;-61
2022/02/12 11:52:01;;;;;;;7.80;6.20;;;;;;;;;;5042490;28;24434;-60
2022/02/12 11:54:47;;;;;;;6.60;5.85;;;;;;;;;;5044556;28;24466;-61
2022/02/12 11:57:17;;;;;;;6.43;5.82;;;;;;;;;;5030140;28;24486;-61
2022/02/12 11:59:43;;;;;;;6.68;5.68;;;;;;;;;;5044488;28;24422;-61
2022/02/12 12:02:08;;;;;;;6.73;6.03;;;;;;;;;;5030712;28;24408;-60
2022/02/12 12:04:33;;;;;;;6.60;6.00;;;;;;;;;;5029735;28;24834;-60
2022/02/12 12:06:58;;;;;;;7.10;5.70;;;;;;;;;;5029121;28;24775;-59
2022/02/12 12:09:23;;;;;;;6.10;5.50;;;;;;;;;;5028352;28;24645;-59
2022/02/12 12:12:07;;;;;;;7.70;6.20;;;;;;;;;;5039989;28;24416;-61
2022/02/12 12:14:33;;;;;;;6.40;5.72;;;;;;;;;;5030380;28;24462;-59
2022/02/12 12:16:59;;;;;;;5.45;4.82;;;;;;;;;;5029117;28;24412;-60
2022/02/12 12:19:25;;;;;;;6.63;5.70;;;;;;;;;;5031018;28;24443;-60
2022/02/12 12:21:50;;;;;;;6.65;5.95;;;;;;;;;;5035090;28;24412;-60
2022/02/12 12:24:19;;;;;;;5.97;5.43;;;;;;;;;;5030102;28;24414;-62
2022/02/12 12:26:46;;;;;;;7.30;5.00;;;;;;;;;;5029570;28;24783;-59
2022/02/12 12:32:00;;;;;;;6.50;5.80;;;;;;;;;;5052678;28;24414;-60
2022/02/12 12:34:25;;;;;;;8.15;6.20;;;;;;;;;;5048963;28;24495;-59
2022/02/12 12:36:50;;;;;;;7.60;5.67;;;;;;;;;;5041467;28;24523;-59
2022/02/12 12:39:15;;;;;;;6.45;5.72;;;;;;;;;;5032858;28;24850;-60
2022/02/12 12:41:43;;;;;;;7.53;5.90;;;;;;;;;;5033304;28;24415;-60
2022/02/12 12:44:08;;;;;;;6.38;5.18;;;;;;;;;;5028923;28;24942;-61
2022/02/12 12:46:34;;;;;;;7.15;5.85;;;;;;;;;;5035373;28;25073;-61
2022/02/12 12:48:59;;;;;;;7.07;5.53;;;;;;;;;;5027878;28;24514;-61
2022/02/12 12:51:24;;;;;;;5.90;5.40;;;;;;;;;;5029571;28;24783;-61
2022/02/12 12:53:49;;;;;;;6.50;5.17;;;;;;;;;;5036179;28;24541;-61
2022/02/12 12:56:24;;;;;;;5.70;5.10;;;;;;;;;;5034117;28;24477;-60
2022/02/12 12:59:03;;;;;;;9.57;5.10;;;;;;;;;;5027014;28;24452;-62
2022/02/12 13:01:28;;;;;;;7.05;5.63;;;;;;;;;;5037429;28;24774;-62
2022/02/12 13:03:56;;;;;;;6.43;5.13;;;;;;;;;;5032454;28;25033;-61
2022/02/12 13:06:21;;;;;;;7.80;5.88;;;;;;;;;;5034407;28;24487;-62
2022/02/12 13:08:46;;;;;;;6.32;5.45;;;;;;;;;;5027606;28;24506;-61
2022/02/12 13:11:25;;;;;;;6.67;5.63;;;;;;;;;;5036478;28;24473;-61
2022/02/12 13:14:03;;;;;;;6.20;5.00;;;;;;;;;;5025509;28;24946;-62
2022/02/12 13:16:32;;;;;;;6.32;4.70;;;;;;;;;;5032011;28;24424;-61
2022/02/12 13:19:01;;;;;;;6.35;5.30;;;;;;;;;;5035567;28;24693;-61
2022/02/12 13:21:28;;;;;;;4.97;4.35;;;;;;;;;;5025388;28;24966;-62
2022/02/12 13:24:00;;;;;;;5.30;4.80;;;;;;;;;;5027340;28;24473;-61
2022/02/12 13:26:26;;;;;;;5.70;4.87;;;;;;;;;;5035576;28;24562;-61
2022/02/12 13:28:51;;;;;;;5.93;5.40;;;;;;;;;;5034481;28;24503;-60
2022/02/12 13:31:16;;;;;;;5.90;5.30;;;;;;;;;;5026298;28;24944;-61
2022/02/12 13:33:55;;;;;;;4.85;4.45;;;;;;;;;;5025254;28;24416;-62
2022/02/12 13:36:20;;;;;;;5.32;4.82;;;;;;;;;;5030577;28;24423;-61
2022/02/12 13:38:45;;;;;;;6.07;4.72;;;;;;;;;;5041850;28;24446;-60
2022/02/12 13:41:11;;;;;;;5.28;4.68;;;;;;;;;;5038121;28;25061;-60
2022/02/12 13:43:43;;;;;;;5.90;4.93;;;;;;;;;;5025591;28;24415;-60
2022/02/12 13:46:08;;;;;;;5.25;4.75;;;;;;;;;;5031814;28;24498;-60
2022/02/12 13:48:43;;;;;;;6.30;5.20;;;;;;;;;;5045298;28;24412;-60
2022/02/12 13:51:10;;;;;;;5.50;5.00;;;;;;;;;;5032715;28;24999;-62
2022/02/12 13:53:50;;;;;;;6.63;5.50;;;;;;;;;;5024233;28;24826;-61
2022/02/12 13:56:16;;;;;;;5.55;4.75;;;;;;;;;;5053490;28;24414;-61
2022/02/12 13:58:42;;;;;;;5.40;4.90;;;;;;;;;;5023105;28;24424;-61
2022/02/12 14:01:07;;;;;;;6.57;5.35;;;;;;;;;;5035311;28;24423;-61
2022/02/12 14:03:43;;;;;;;6.13;5.20;;;;;;;;;;5055899;28;24404;-61
2022/02/12 14:06:09;;;;;;;6.13;5.20;;;;;;;;;;5037076;28;25078;-62
2022/02/12 14:08:34;;;;;;;5.55;5.05;;;;;;;;;;5034101;28;24408;-61
2022/02/12 14:11:00;;;;;;;6.63;5.27;;;;;;;;;;5051357;28;24823;-61
2022/02/12 14:13:25;;;;;;;6.00;4.57;;;;;;;;;;5027818;28;24419;-59
2022/02/12 14:15:50;;;;;;;6.13;4.80;;;;;;;;;;5024448;28;24426;-61
2022/02/12 14:18:15;;;;;;;5.13;4.63;;;;;;;;;;5030532;28;24419;-60
2022/02/12 14:20:41;;;;;;;7.38;5.60;;;;;;;;;;5035837;28;24426;-60
2022/02/12 14:23:06;;;;;;;5.27;4.77;;;;;;;;;;5030339;28;24506;-60
2022/02/12 14:25:34;;;;;;;7.18;4.80;;;;;;;;;;5026673;28;24416;-60
2022/02/12 14:27:59;;;;;;;6.18;4.88;;;;;;;;;;5038404;28;24447;-59
2022/02/12 14:30:24;;;;;;;5.50;4.90;;;;;;;;;;5039106;28;24532;-60
2022/02/12 14:32:49;;;;;;;6.13;4.97;;;;;;;;;;5044569;28;25128;-60
2022/02/12 14:35:15;;;;;;;6.05;4.93;;;;;;;;;;5029041;28;24443;-60
2022/02/12 14:37:40;;;;;;;6.10;5.10;;;;;;;;;;5030483;28;24423;-59
2022/02/12 14:40:05;;;;;;;6.55;5.30;;;;;;;;;;5046131;28;24774;-59
2022/02/12 14:42:32;;;;;;;5.97;5.47;;;;;;;;;;5042004;28;25224;-59
2022/02/12 14:44:57;;;;;;;6.53;5.50;;;;;;;;;;5026359;28;24819;-59
2022/02/12 14:47:22;;;;;;;5.47;4.97;;;;;;;;;;5026578;28;25016;-60